Schneifelwetter: Wetterstation Hallschlag, 537 m . NN
Wetterdaten: Sonntag, 19.10.2008
Datum Zeit Temp. A. Temp. 2 Feuchte A. Luftdruck Regen Wind Richtung Richtung Sonnenschein Helligkeit T Regen Taupunkt Windchill
19.10.2008 00:02 0,9 C -0,4 C 96 % 1020 hPa 0,0 l/m 0,0 km/h (0 Bft) W-SW 255 0 min 0 lux 0,00 min 0,3 C 0,9 C
19.10.2008 00:17 0,9 C -0,4 C 96 % 1020 hPa 0,0 l/m 0,0 km/h (0 Bft) W-SW 255 0 min 0 lux 0,00 min 0,3 C 0,9 C
19.10.2008 00:32 0,7 C -0,4 C 96 % 1020 hPa 0,0 l/m 0,0 km/h (0 Bft) S-SW 200 0 min 0 lux 0,00 min 0,1 C 0,7 C
19.10.2008 00:47 0,7 C -0,3 C 96 % 1020 hPa 0,0 l/m 0,0 km/h (0 Bft) S-SW 200 0 min 0 lux 0,00 min 0,1 C 0,7 C
19.10.2008 01:02 0,7 C -0,4 C 96 % 1020 hPa 0,0 l/m 0,0 km/h (0 Bft) S-SW 200 0 min 0 lux 0,00 min 0,1 C 0,7 C
19.10.2008 01:17 0,9 C -0,6 C 97 % 1020 hPa 0,0 l/m 0,0 km/h (0 Bft) S-SW 200 0 min 0 lux 0,00 min 0,5 C 0,9 C
19.10.2008 01:32 0,9 C -0,6 C 97 % 1020 hPa 0,0 l/m 0,0 km/h (0 Bft) S-SW 200 0 min 0 lux 0,00 min 0,5 C 0,9 C
19.10.2008 01:47 0,7 C -0,7 C 97 % 1020 hPa 0,0 l/m 0,0 km/h (0 Bft) W 275 0 min 0 lux 0,00 min 0,3 C 0,7 C
19.10.2008 02:02 0,7 C -0,5 C 97 % 1020 hPa 0,0 l/m 0,0 km/h (0 Bft) W 260 0 min 0 lux 0,00 min 0,3 C 0,7 C
19.10.2008 02:17 0,7 C -0,4 C 97 % 1020 hPa 0,0 l/m 0,0 km/h (0 Bft) W-SW 255 0 min 0 lux 0,00 min 0,3 C 0,7 C
19.10.2008 02:32 0,7 C -0,5 C 97 % 1020 hPa 0,0 l/m 0,0 km/h (0 Bft) W-SW 250 0 min 0 lux 0,00 min 0,3 C 0,7 C
19.10.2008 02:47 0,5 C -0,8 C 97 % 1020 hPa 0,0 l/m 0,0 km/h (0 Bft) W-SW 250 0 min 0 lux 0,00 min 0,1 C 0,5 C
19.10.2008 03:02 0,5 C -0,6 C 97 % 1020 hPa 0,0 l/m 6,2 km/h (2 Bft) W-SW 250 0 min 0 lux 0,00 min 0,1 C 0,5 C
19.10.2008 03:17 0,6 C -0,4 C 98 % 1020 hPa 0,0 l/m 3,9 km/h (1 Bft) W-SW 250 0 min 0 lux 0,00 min 0,3 C 0,6 C
19.10.2008 03:32 0,7 C -0,2 C 98 % 1020 hPa 0,3 l/m 5,7 km/h (1 Bft) W-SW 250 0 min 0 lux 15,00 min 0,4 C 0,7 C
19.10.2008 03:47 0,5 C -0,5 C 97 % 1020 hPa 0,0 l/m 0,0 km/h (0 Bft) W-SW 245 0 min 0 lux 0,00 min 0,1 C 0,5 C
19.10.2008 04:02 0,3 C -0,9 C 97 % 1020 hPa 0,0 l/m 0,0 km/h (0 Bft) W-SW 245 0 min 0 lux 0,00 min -0,1 C 0,3 C
19.10.2008 04:17 0,3 C -0,7 C 98 % 1020 hPa 0,0 l/m 3,1 km/h (1 Bft) W-SW 245 0 min 0 lux 0,00 min 0,0 C 0,3 C
19.10.2008 04:32 0,3 C -0,8 C 98 % 1020 hPa 0,0 l/m 0,0 km/h (0 Bft) W-SW 245 0 min 0 lux 0,00 min 0,0 C 0,3 C
19.10.2008 04:47 0,2 C -1,1 C 98 % 1020 hPa 0,0 l/m 0,0 km/h (0 Bft) W-SW 245 0 min 0 lux 0,00 min -0,1 C 0,2 C
19.10.2008 05:02 0,0 C -1,2 C 98 % 1020 hPa 0,0 l/m 0,2 km/h (0 Bft) W-SW 245 0 min 0 lux 0,00 min -0,3 C 0,0 C
19.10.2008 05:17 -0,2 C -1,3 C 98 % 1020 hPa 0,0 l/m 4,7 km/h (1 Bft) W-SW 245 0 min 0 lux 0,00 min -0,5 C -0,2 C
19.10.2008 05:32 -0,3 C -1,4 C 98 % 1020 hPa 0,0 l/m 0,0 km/h (0 Bft) W-SW 245 0 min 0 lux 0,00 min -0,6 C -0,3 C
19.10.2008 05:47 -0,4 C -1,5 C 98 % 1020 hPa 0,0 l/m 3,5 km/h (1 Bft) W-SW 245 0 min 0 lux 0,00 min -0,7 C -0,4 C
19.10.2008 06:02 -0,5 C -1,5 C 98 % 1020 hPa 0,0 l/m 0,0 km/h (0 Bft) W-SW 245 0 min 0 lux 0,00 min -0,8 C -0,5 C
19.10.2008 06:17 -0,6 C -1,7 C 98 % 1020 hPa 0,0 l/m 0,0 km/h (0 Bft) W-SW 245 0 min 0 lux 0,00 min -0,9 C -0,6 C
19.10.2008 06:32 -0,7 C -1,8 C 98 % 1020 hPa 0,0 l/m 0,0 km/h (0 Bft) W-SW 245 0 min 0 lux 0,00 min -1,0 C -0,7 C
19.10.2008 06:47 -0,8 C -1,9 C 98 % 1020 hPa 0,0 l/m 0,0 km/h (0 Bft) W-SW 245 0 min 0 lux 0,00 min -1,1 C -0,8 C
19.10.2008 07:02 -0,9 C -2,1 C 98 % 1020 hPa 0,0 l/m 0,0 km/h (0 Bft) W-SW 245 0 min 0 lux 0,00 min -1,2 C -0,9 C
19.10.2008 07:16 -1,1 C -2,2 C 98 % 1021 hPa 0,0 l/m 0,0 km/h (0 Bft) W-SW 245 0 min 0 lux 0,00 min -1,4 C -1,1 C
19.10.2008 07:31 -1,3 C -2,5 C 98 % 1021 hPa 0,0 l/m 0,0 km/h (0 Bft) W-SW 245 0 min 0 lux 0,00 min -1,6 C -1,3 C
19.10.2008 07:46 -1,3 C -2,5 C 98 % 1021 hPa 0,0 l/m 0,0 km/h (0 Bft) W-SW 245 0 min 81 lux 0,00 min -1,6 C -1,3 C
19.10.2008 08:01 -1,3 C -2,6 C 98 % 1021 hPa 0,0 l/m 0,0 km/h (0 Bft) W-SW 245 0 min 344 lux 0,00 min -1,6 C -1,3 C
19.10.2008 08:16 -1,3 C -2,7 C 98 % 1021 hPa 0,0 l/m 0,0 km/h (0 Bft) W-SW 245 0 min 1,00 klux 0,00 min -1,6 C -1,3 C
19.10.2008 08:31 -1,2 C -2,5 C 98 % 1021 hPa 0,0 l/m 0,0 km/h (0 Bft) W-SW 245 0 min 2,42 klux 0,00 min -1,5 C -1,2 C
19.10.2008 08:46 -0,9 C -2,1 C 98 % 1021 hPa 0,0 l/m 0,0 km/h (0 Bft) W-SW 245 0 min 5,83 klux 0,00 min -1,2 C -0,9 C
19.10.2008 09:01 -0,6 C -1,8 C 98 % 1021 hPa 0,0 l/m 0,0 km/h (0 Bft) W-SW 245 0 min 13,9 klux 0,00 min -0,9 C -0,6 C
19.10.2008 09:16 -0,2 C -1,2 C 98 % 1021 hPa 0,0 l/m 0,0 km/h (0 Bft) W-SW 245 0 min 17,6 klux 0,00 min -0,5 C -0,2 C
19.10.2008 09:31 0,7 C -0,5 C 99 % 1022 hPa 0,0 l/m 0,0 km/h (0 Bft) W-SW 245 0 min 23,5 klux 0,00 min 0,6 C 0,7 C
19.10.2008 09:46 1,2 C 0,3 C 99 % 1022 hPa 0,0 l/m 0,0 km/h (0 Bft) W-SW 245 0 min 33,5 klux 0,00 min 1,1 C 1,2 C
19.10.2008 10:01 2,7 C 3,0 C 99 % 1022 hPa 0,0 l/m 0,4 km/h (0 Bft) W-SW 245 0 min 38,3 klux 0,00 min 2,6 C 2,7 C
19.10.2008 10:16 4,4 C 5,5 C 99 % 1022 hPa 0,0 l/m 17,8 km/h (3 Bft) W-SW22.5 250 0 min 37,8 klux 0,00 min 4,3 C -3,0 C
19.10.2008 10:31 5,9 C 7,3 C 99 % 1022 hPa 0,0 l/m 15,3 km/h (3 Bft) W22.5 260 0 min 39,9 klux 0,00 min 5,8 C 0,0 C
19.10.2008 10:46 6,7 C 8,6 C 99 % 1022 hPa 0,0 l/m 20,0 km/h (4 Bft) W22.5 260 0 min 43,1 klux 0,00 min 6,6 C -1,0 C
19.10.2008 11:01 7,2 C 9,2 C 97 % 1022 hPa 0,0 l/m 19,5 km/h (3 Bft) W-SW22.5 250 0 min 39,8 klux 0,00 min 6,8 C -0,1 C
19.10.2008 11:16 7,5 C 9,7 C 95 % 1022 hPa 0,0 l/m 18,3 km/h (3 Bft) W22.5 260 0 min 44,1 klux 0,00 min 6,8 C 0,7 C
19.10.2008 11:31 8,0 C 10,5 C 94 % 1022 hPa 0,0 l/m 20,3 km/h (4 Bft) W-SW45 255 0 min 47,3 klux 0,00 min 7,1 C 0,6 C
19.10.2008 11:46 8,4 C 11,5 C 94 % 1022 hPa 0,0 l/m 20,1 km/h (4 Bft) W-SW45 245 0 min 47,3 klux 0,00 min 7,5 C 1,2 C
19.10.2008 12:01 8,8 C 12,2 C 93 % 1022 hPa 0,0 l/m 19,4 km/h (3 Bft) W45 260 0 min 49,8 klux 0,00 min 7,7 C 1,9 C
19.10.2008 12:16 9,3 C 12,9 C 92 % 1022 hPa 0,0 l/m 22,8 km/h (4 Bft) W-SW22.5 240 15 min 59,3 klux 0,00 min 8,1 C 1,5 C
19.10.2008 12:31 9,6 C 13,3 C 90 % 1022 hPa 0,0 l/m 26,3 km/h (4 Bft) W22.5 265 0 min 54,9 klux 0,00 min 8,0 C 1,0 C
19.10.2008 12:46 10,0 C 14,1 C 87 % 1022 hPa 0,0 l/m 24,0 km/h (4 Bft) W-SW45 250 0 min 55,3 klux 0,00 min 7,9 C 2,1 C
19.10.2008 13:01 10,2 C 14,8 C 86 % 1022 hPa 0,0 l/m 22,2 km/h (4 Bft) SW67.5 225 0 min 55,6 klux 0,00 min 8,0 C 2,9 C
19.10.2008 13:16 10,3 C 14,8 C 85 % 1022 hPa 0,0 l/m 26,0 km/h (4 Bft) W-SW45 255 0 min 54,6 klux 0,00 min 7,9 C 2,0 C
19.10.2008 13:31 10,2 C 14,4 C 82 % 1022 hPa 0,0 l/m 19,8 km/h (3 Bft) W22.5 260 0 min 46,4 klux 0,00 min 7,3 C 3,6 C
19.10.2008 13:46 10,3 C 14,9 C 82 % 1022 hPa 0,0 l/m 18,5 km/h (3 Bft) W-SW67.5 250 0 min 49,3 klux 0,00 min 7,4 C 4,2 C
19.10.2008 14:01 10,3 C 14,3 C 82 % 1021 hPa 0,0 l/m 27,1 km/h (4 Bft) W-SW22.5 255 0 min 50,7 klux 0,00 min 7,4 C 1,7 C
19.10.2008 14:16 10,3 C 14,2 C 82 % 1021 hPa 0,0 l/m 20,6 km/h (4 Bft) W22.5 260 0 min 45,7 klux 0,00 min 7,4 C 3,5 C
19.10.2008 14:31 10,6 C 14,7 C 83 % 1021 hPa 0,0 l/m 19,2 km/h (3 Bft) W-SW45 255 0 min 50,6 klux 0,00 min 7,8 C 4,3 C
19.10.2008 14:46 11,2 C 16,4 C 81 % 1021 hPa 0,0 l/m 20,3 km/h (4 Bft) W-SW45 250 15 min 57,8 klux 0,00 min 8,1 C 4,7 C
19.10.2008 15:01 11,6 C 15,0 C 79 % 1021 hPa 0,0 l/m 20,3 km/h (4 Bft) SW45 225 0 min 38,9 klux 0,00 min 8,1 C 5,3 C
19.10.2008 15:16 11,6 C 15,0 C 79 % 1021 hPa 0,0 l/m 22,8 km/h (4 Bft) S-SW45 210 0 min 55,5 klux 0,00 min 8,1 C 4,6 C
19.10.2008 15:31 11,0 C 13,2 C 78 % 1020 hPa 0,0 l/m 16,4 km/h (3 Bft) W-SW45 240 0 min 18,2 klux 0,00 min 7,3 C 5,8 C
19.10.2008 15:46 11,0 C 13,4 C 79 % 1020 hPa 0,0 l/m 17,3 km/h (3 Bft) S-SW45 200 0 min 41,0 klux 0,00 min 7,5 C 5,5 C
19.10.2008 16:01 11,4 C 15,2 C 75 % 1020 hPa 0,0 l/m 17,8 km/h (3 Bft) S-SW45 195 0 min 45,8 klux 0,00 min 7,1 C 5,8 C
19.10.2008 16:16 11,3 C 14,2 C 76 % 1020 hPa 0,0 l/m 16,4 km/h (3 Bft) S-SW67.5 205 0 min 43,6 klux 0,00 min 7,2 C 6,2 C
19.10.2008 16:32 11,1 C 14,8 C 77 % 1020 hPa 0,0 l/m 22,1 km/h (4 Bft) W-SW22.5 255 0 min 38,6 klux 0,00 min 7,2 C 4,1 C
19.10.2008 16:47 11,0 C 13,6 C 76 % 1020 hPa 0,0 l/m 25,1 km/h (4 Bft) W-SW22.5 255 0 min 28,1 klux 0,00 min 6,9 C 3,2 C
19.10.2008 17:02 10,8 C 13,5 C 77 % 1020 hPa 0,0 l/m 16,0 km/h (3 Bft) SW45 215 0 min 32,9 klux 0,00 min 6,9 C 5,7 C
19.10.2008 17:17 10,4 C 12,2 C 78 % 1020 hPa 0,0 l/m 18,6 km/h (3 Bft) S-SW45 210 0 min 16,1 klux 0,00 min 6,7 C 4,3 C
19.10.2008 17:32 10,7 C 13,8 C 78 % 1020 hPa 0,0 l/m 14,5 km/h (3 Bft) W-SW67.5 245 0 min 27,2 klux 0,00 min 7,0 C 6,2 C
19.10.2008 17:47 10,3 C 12,6 C 78 % 1020 hPa 0,0 l/m 17,7 km/h (3 Bft) W-SW22.5 250 0 min 16,1 klux 0,00 min 6,6 C 4,5 C
19.10.2008 18:02 9,6 C 11,1 C 80 % 1020 hPa 0,0 l/m 15,0 km/h (3 Bft) S-SW45 205 0 min 9,4 klux 0,00 min 6,3 C 4,6 C
19.10.2008 18:17 8,9 C 9,5 C 81 % 1020 hPa 0,0 l/m 10,7 km/h (2 Bft) S-SW22.5 195 0 min 4,53 klux 0,00 min 5,8 C 6,0 C
19.10.2008 18:32 8,0 C 8,2 C 83 % 1020 hPa 0,0 l/m 13,0 km/h (3 Bft) S 185 0 min 2,98 klux 0,00 min 5,3 C 3,7 C
19.10.2008 18:47 7,4 C 7,3 C 84 % 1020 hPa 0,0 l/m 9,0 km/h (2 Bft) SW22.5 220 0 min 855 lux 0,00 min 4,9 C 5,4 C
19.10.2008 19:02 7,0 C 6,5 C 85 % 1020 hPa 0,0 l/m 9,6 km/h (2 Bft) S-SW22.5 205 0 min 306 lux 0,00 min 4,7 C 4,5 C
19.10.2008 19:17 6,4 C 5,9 C 86 % 1020 hPa 0,0 l/m 7,6 km/h (2 Bft) S-SW22.5 210 0 min 24 lux 0,00 min 4,2 C 5,4 C
19.10.2008 19:32 5,7 C 5,3 C 86 % 1020 hPa 0,0 l/m 5,6 km/h (1 Bft) S 185 0 min 3 lux 0,00 min 3,5 C 5,7 C
19.10.2008 19:47 5,2 C 4,8 C 88 % 1020 hPa 0,0 l/m 4,9 km/h (1 Bft) S 180 0 min 0 lux 0,00 min 3,4 C 5,2 C
19.10.2008 20:02 4,7 C 4,2 C 89 % 1020 hPa 0,0 l/m 5,8 km/h (2 Bft) S 180 0 min 0 lux 0,00 min 3,0 C 4,7 C
19.10.2008 20:17 4,4 C 3,8 C 90 % 1020 hPa 0,0 l/m 5,0 km/h (1 Bft) S 180 0 min 0 lux 0,00 min 2,9 C 4,4 C
19.10.2008 20:32 4,2 C 3,3 C 91 % 1020 hPa 0,0 l/m 5,0 km/h (1 Bft) S 180 0 min 0 lux 0,00 min 2,9 C 4,2 C
19.10.2008 20:47 3,7 C 2,8 C 91 % 1020 hPa 0,0 l/m 1,2 km/h (1 Bft) S-SW45 200 0 min 0 lux 0,00 min 2,4 C 3,7 C
19.10.2008 21:02 3,5 C 2,8 C 92 % 1019 hPa 0,0 l/m 8,4 km/h (2 Bft) SW22.5 235 0 min 0 lux 0,00 min 2,3 C 1,7 C
19.10.2008 21:17 3,8 C 3,0 C 93 % 1019 hPa 0,0 l/m 10,5 km/h (2 Bft) SW22.5 230 0 min 0 lux 0,00 min 2,8 C 0,4 C
19.10.2008 21:32 3,8 C 2,9 C 93 % 1020 hPa 0,0 l/m 9,7 km/h (2 Bft) SW22.5 220 0 min 0 lux 0,00 min 2,8 C 1,0 C
19.10.2008 21:47 3,6 C 3,0 C 93 % 1020 hPa 0,0 l/m 8,0 km/h (2 Bft) S-SW22.5 195 0 min 0 lux 0,00 min 2,6 C 2,1 C
19.10.2008 22:02 3,4 C 2,6 C 93 % 1019 hPa 0,0 l/m 6,5 km/h (2 Bft) S-SW 195 0 min 0 lux 0,00 min 2,4 C 3,3 C
19.10.2008 22:17 3,2 C 2,1 C 93 % 1019 hPa 0,0 l/m 0,4 km/h (0 Bft) SW22.5 225 0 min 0 lux 0,00 min 2,2 C 3,2 C
19.10.2008 22:32 3,2 C 2,0 C 94 % 1019 hPa 0,0 l/m 3,4 km/h (1 Bft) W-SW22.5 250 0 min 0 lux 0,00 min 2,3 C 3,2 C
19.10.2008 22:47 2,9 C 1,6 C 93 % 1019 hPa 0,0 l/m 3,1 km/h (1 Bft) W-SW 255 0 min 0 lux 0,00 min 1,9 C 2,9 C
19.10.2008 23:02 2,6 C 1,2 C 94 % 1019 hPa 0,0 l/m 0,1 km/h (0 Bft) W-SW 255 0 min 0 lux 0,00 min 1,7 C 2,6 C
19.10.2008 23:17 2,3 C 0,6 C 94 % 1019 hPa 0,0 l/m 0,0 km/h (0 Bft) W-SW 255 0 min 0 lux 0,00 min 1,4 C 2,3 C
19.10.2008 23:32 2,0 C 0,4 C 94 % 1019 hPa 0,0 l/m 1,0 km/h (0 Bft) W-SW 255 0 min 0 lux 0,00 min 1,1 C 2,0 C
19.10.2008 23:47 1,9 C 0,2 C 95 % 1019 hPa 0,0 l/m 0,0 km/h (0 Bft) W-SW 255 0 min 0 lux 0,00 min 1,2 C 1,9 C
_ Min-Zeit 07:31 08:16 16:01 21:02 - 00:02 - - - - - 07:31 10:16
Minimum _ -1,3 C -2,7 C 75 % 1019 hPa - 0,0 km/h (0 Bft) - - - - - -1,6 C -3,0 C
_ Max-Zeit 15:01 14:46 09:31 09:31 03:32 14:01 - - 12:16 12:16 03:32 15:01 17:32
Maximum _ 11,6 C 16,4 C 99 % 1022 hPa 0,3 l/m 27,1 km/h
W-SW (4 Bft)
- - 15 min 59,3 klux 15,00 min 8,1 C 6,2 C
Durchschnitt _ 4,3 C 4,7 C 92 % 1021 hPa #0,3 l/m 8,3 km/h (2 Bft) W-SW - #30 min. 15,5 klux #15 min. 3,0 C 1,9 C